sensor_id;sensor_type;location;lat;lon;timestamp;temperature;humidity
13982;DHT22;7065;50.880;5.502;2023-05-07T00:00:04;13.50;99.90
13982;DHT22;7065;50.880;5.502;2023-05-07T00:02:33;13.40;99.90
13982;DHT22;7065;50.880;5.502;2023-05-07T00:04:59;13.40;99.90
13982;DHT22;7065;50.880;5.502;2023-05-07T00:07:24;13.40;99.90
13982;DHT22;7065;50.880;5.502;2023-05-07T00:09:50;13.40;99.90
13982;DHT22;7065;50.880;5.502;2023-05-07T00:12:16;13.40;99.90
13982;DHT22;7065;50.880;5.502;2023-05-07T00:14:42;13.40;99.90
13982;DHT22;7065;50.880;5.502;2023-05-07T00:17:08;13.50;99.90
13982;DHT22;7065;50.880;5.502;2023-05-07T00:19:33;13.50;99.90
13982;DHT22;7065;50.880;5.502;2023-05-07T00:21:59;13.50;99.90
13982;DHT22;7065;50.880;5.502;2023-05-07T00:24:25;13.50;99.90
13982;DHT22;7065;50.880;5.502;2023-05-07T00:26:51;13.50;99.90
13982;DHT22;7065;50.880;5.502;2023-05-07T00:29:18;13.50;99.90
13982;DHT22;7065;50.880;5.502;2023-05-07T00:31:43;13.50;99.90
13982;DHT22;7065;50.880;5.502;2023-05-07T00:34:09;13.50;99.90
13982;DHT22;7065;50.880;5.502;2023-05-07T00:36:35;13.50;99.90
13982;DHT22;7065;50.880;5.502;2023-05-07T00:39:01;13.60;99.90
13982;DHT22;7065;50.880;5.502;2023-05-07T00:41:29;13.60;99.90
13982;DHT22;7065;50.880;5.502;2023-05-07T00:43:56;13.50;99.90
13982;DHT22;7065;50.880;5.502;2023-05-07T00:46:23;13.50;99.90
13982;DHT22;7065;50.880;5.502;2023-05-07T00:48:50;13.50;99.90
13982;DHT22;7065;50.880;5.502;2023-05-07T00:51:17;13.50;99.90
13982;DHT22;7065;50.880;5.502;2023-05-07T00:53:43;13.50;99.90
13982;DHT22;7065;50.880;5.502;2023-05-07T00:56:10;13.40;99.90
13982;DHT22;7065;50.880;5.502;2023-05-07T00:58:36;13.40;99.90
13982;DHT22;7065;50.880;5.502;2023-05-07T01:01:02;13.40;99.90
13982;DHT22;7065;50.880;5.502;2023-05-07T01:03:28;13.30;99.90
13982;DHT22;7065;50.880;5.502;2023-05-07T01:05:56;13.40;99.90
13982;DHT22;7065;50.880;5.502;2023-05-07T01:08:23;13.40;99.90
13982;DHT22;7065;50.880;5.502;2023-05-07T01:10:52;13.40;99.90
13982;DHT22;7065;50.880;5.502;2023-05-07T01:13:19;13.40;99.90
13982;DHT22;7065;50.880;5.502;2023-05-07T01:15:45;13.40;99.90
13982;DHT22;7065;50.880;5.502;2023-05-07T01:18:10;13.40;99.90
13982;DHT22;7065;50.880;5.502;2023-05-07T01:20:36;13.50;99.90
13982;DHT22;7065;50.880;5.502;2023-05-07T01:23:03;13.50;99.90
13982;DHT22;7065;50.880;5.502;2023-05-07T01:25:29;13.50;99.90
13982;DHT22;7065;50.880;5.502;2023-05-07T01:27:56;13.50;99.90
13982;DHT22;7065;50.880;5.502;2023-05-07T01:30:22;13.50;99.90
13982;DHT22;7065;50.880;5.502;2023-05-07T01:32:52;13.40;99.90
13982;DHT22;7065;50.880;5.502;2023-05-07T01:35:21;13.40;99.90
13982;DHT22;7065;50.880;5.502;2023-05-07T01:37:48;13.50;99.90
13982;DHT22;7065;50.880;5.502;2023-05-07T01:40:14;13.50;99.90
13982;DHT22;7065;50.880;5.502;2023-05-07T01:42:42;13.50;99.90
13982;DHT22;7065;50.880;5.502;2023-05-07T01:45:09;13.40;99.90
13982;DHT22;7065;50.880;5.502;2023-05-07T01:47:36;13.50;99.90
13982;DHT22;7065;50.880;5.502;2023-05-07T01:50:02;13.50;99.90
13982;DHT22;7065;50.880;5.502;2023-05-07T01:52:28;13.50;99.90
13982;DHT22;7065;50.880;5.502;2023-05-07T01:54:54;13.50;99.90
13982;DHT22;7065;50.880;5.502;2023-05-07T01:57:19;13.50;99.90
13982;DHT22;7065;50.880;5.502;2023-05-07T01:59:45;13.50;99.90
13982;DHT22;7065;50.880;5.502;2023-05-07T02:02:11;13.50;99.90
13982;DHT22;7065;50.880;5.502;2023-05-07T02:04:36;13.50;99.90
13982;DHT22;7065;50.880;5.502;2023-05-07T02:07:02;13.50;99.90
13982;DHT22;7065;50.880;5.502;2023-05-07T02:09:28;13.50;99.90
13982;DHT22;7065;50.880;5.502;2023-05-07T02:11:54;13.50;99.90
13982;DHT22;7065;50.880;5.502;2023-05-07T02:14:20;13.50;99.90
13982;DHT22;7065;50.880;5.502;2023-05-07T02:16:46;13.50;99.90
13982;DHT22;7065;50.880;5.502;2023-05-07T02:19:11;13.50;99.90
13982;DHT22;7065;50.880;5.502;2023-05-07T02:21:37;13.50;99.90
13982;DHT22;7065;50.880;5.502;2023-05-07T02:24:02;13.50;99.90
13982;DHT22;7065;50.880;5.502;2023-05-07T02:26:28;13.50;99.90
13982;DHT22;7065;50.880;5.502;2023-05-07T02:28:54;13.50;99.90
13982;DHT22;7065;50.880;5.502;2023-05-07T02:31:20;13.50;99.90
13982;DHT22;7065;50.880;5.502;2023-05-07T02:33:45;13.50;99.90
13982;DHT22;7065;50.880;5.502;2023-05-07T02:36:11;13.50;99.90
13982;DHT22;7065;50.880;5.502;2023-05-07T02:38:38;13.50;99.90
13982;DHT22;7065;50.880;5.502;2023-05-07T02:41:04;13.40;99.90
13982;DHT22;7065;50.880;5.502;2023-05-07T02:43:30;13.40;99.90
13982;DHT22;7065;50.880;5.502;2023-05-07T02:46:05;13.40;99.90
13982;DHT22;7065;50.880;5.502;2023-05-07T02:48:31;13.40;99.90
13982;DHT22;7065;50.880;5.502;2023-05-07T02:50:58;13.40;99.90
13982;DHT22;7065;50.880;5.502;2023-05-07T02:53:24;13.40;99.90
13982;DHT22;7065;50.880;5.502;2023-05-07T02:55:53;13.40;99.90
13982;DHT22;7065;50.880;5.502;2023-05-07T02:58:19;13.40;99.90
13982;DHT22;7065;50.880;5.502;2023-05-07T03:00:45;13.30;99.90
13982;DHT22;7065;50.880;5.502;2023-05-07T03:03:11;13.30;99.90
13982;DHT22;7065;50.880;5.502;2023-05-07T03:05:37;13.30;99.90
13982;DHT22;7065;50.880;5.502;2023-05-07T03:08:02;13.30;99.90
13982;DHT22;7065;50.880;5.502;2023-05-07T03:10:29;13.30;99.90
13982;DHT22;7065;50.880;5.502;2023-05-07T03:12:55;13.30;99.90
13982;DHT22;7065;50.880;5.502;2023-05-07T03:15:21;13.30;99.90
13982;DHT22;7065;50.880;5.502;2023-05-07T03:17:48;13.30;99.90
13982;DHT22;7065;50.880;5.502;2023-05-07T03:20:14;13.20;99.90
13982;DHT22;7065;50.880;5.502;2023-05-07T03:22:40;13.20;99.90
13982;DHT22;7065;50.880;5.502;2023-05-07T03:25:06;13.10;99.90
13982;DHT22;7065;50.880;5.502;2023-05-07T03:27:32;13.10;99.90
13982;DHT22;7065;50.880;5.502;2023-05-07T03:29:58;13.10;99.90
13982;DHT22;7065;50.880;5.502;2023-05-07T03:32:24;13.10;99.90
13982;DHT22;7065;50.880;5.502;2023-05-07T03:34:50;13.10;99.90
13982;DHT22;7065;50.880;5.502;2023-05-07T03:37:16;13.10;99.90
13982;DHT22;7065;50.880;5.502;2023-05-07T03:39:41;13.10;99.90
13982;DHT22;7065;50.880;5.502;2023-05-07T03:42:07;13.10;99.90
13982;DHT22;7065;50.880;5.502;2023-05-07T03:44:33;13.10;99.90
13982;DHT22;7065;50.880;5.502;2023-05-07T03:46:58;13.10;99.90
13982;DHT22;7065;50.880;5.502;2023-05-07T03:49:24;13.10;99.90
13982;DHT22;7065;50.880;5.502;2023-05-07T03:51:50;13.20;99.90
13982;DHT22;7065;50.880;5.502;2023-05-07T03:54:16;13.20;99.90
13982;DHT22;7065;50.880;5.502;2023-05-07T03:56:41;13.20;99.90
13982;DHT22;7065;50.880;5.502;2023-05-07T03:59:07;13.10;99.90
13982;DHT22;7065;50.880;5.502;2023-05-07T04:01:33;13.20;99.90
13982;DHT22;7065;50.880;5.502;2023-05-07T04:03:59;13.20;99.90
13982;DHT22;7065;50.880;5.502;2023-05-07T04:06:24;13.20;99.90
13982;DHT22;7065;50.880;5.502;2023-05-07T04:08:50;13.30;99.90
13982;DHT22;7065;50.880;5.502;2023-05-07T04:11:16;13.30;99.90
13982;DHT22;7065;50.880;5.502;2023-05-07T04:13:42;13.20;99.90
13982;DHT22;7065;50.880;5.502;2023-05-07T04:16:08;13.30;99.90
13982;DHT22;7065;50.880;5.502;2023-05-07T04:18:33;13.30;99.90
13982;DHT22;7065;50.880;5.502;2023-05-07T04:20:59;13.30;99.90
13982;DHT22;7065;50.880;5.502;2023-05-07T04:23:25;13.30;99.90
13982;DHT22;7065;50.880;5.502;2023-05-07T04:25:51;13.40;99.90
13982;DHT22;7065;50.880;5.502;2023-05-07T04:28:17;13.40;99.90
13982;DHT22;7065;50.880;5.502;2023-05-07T04:30:42;13.40;99.90
13982;DHT22;7065;50.880;5.502;2023-05-07T04:33:08;13.40;99.90
13982;DHT22;7065;50.880;5.502;2023-05-07T04:35:35;13.40;99.90
13982;DHT22;7065;50.880;5.502;2023-05-07T04:38:01;13.40;99.90
13982;DHT22;7065;50.880;5.502;2023-05-07T04:40:27;13.40;99.90
13982;DHT22;7065;50.880;5.502;2023-05-07T04:42:52;13.40;99.90
13982;DHT22;7065;50.880;5.502;2023-05-07T04:45:18;13.40;99.90
13982;DHT22;7065;50.880;5.502;2023-05-07T04:47:44;13.50;99.90
13982;DHT22;7065;50.880;5.502;2023-05-07T04:50:10;13.50;99.90
13982;DHT22;7065;50.880;5.502;2023-05-07T04:52:36;13.50;99.90
13982;DHT22;7065;50.880;5.502;2023-05-07T04:55:02;13.50;99.90
13982;DHT22;7065;50.880;5.502;2023-05-07T04:57:28;13.60;99.90
13982;DHT22;7065;50.880;5.502;2023-05-07T04:59:54;13.60;99.90
13982;DHT22;7065;50.880;5.502;2023-05-07T05:02:20;13.60;99.90
13982;DHT22;7065;50.880;5.502;2023-05-07T05:04:46;13.70;99.90
13982;DHT22;7065;50.880;5.502;2023-05-07T05:07:11;13.70;99.90
13982;DHT22;7065;50.880;5.502;2023-05-07T05:09:37;13.70;99.90
13982;DHT22;7065;50.880;5.502;2023-05-07T05:12:03;13.80;99.90
13982;DHT22;7065;50.880;5.502;2023-05-07T05:14:29;13.80;99.90
13982;DHT22;7065;50.880;5.502;2023-05-07T05:16:55;13.80;99.90
13982;DHT22;7065;50.880;5.502;2023-05-07T05:19:20;13.90;99.90
13982;DHT22;7065;50.880;5.502;2023-05-07T05:21:46;13.90;99.90
13982;DHT22;7065;50.880;5.502;2023-05-07T05:24:12;14.00;99.90
13982;DHT22;7065;50.880;5.502;2023-05-07T05:26:37;14.00;99.90
13982;DHT22;7065;50.880;5.502;2023-05-07T05:29:03;14.00;99.90
13982;DHT22;7065;50.880;5.502;2023-05-07T05:31:29;14.10;99.90
13982;DHT22;7065;50.880;5.502;2023-05-07T05:33:55;14.10;99.90
13982;DHT22;7065;50.880;5.502;2023-05-07T05:36:21;14.10;99.90
13982;DHT22;7065;50.880;5.502;2023-05-07T05:38:47;14.10;99.90
13982;DHT22;7065;50.880;5.502;2023-05-07T05:41:12;14.20;99.90
13982;DHT22;7065;50.880;5.502;2023-05-07T05:43:38;14.30;99.90
13982;DHT22;7065;50.880;5.502;2023-05-07T05:46:04;14.30;99.90
13982;DHT22;7065;50.880;5.502;2023-05-07T05:48:30;14.30;99.90
13982;DHT22;7065;50.880;5.502;2023-05-07T05:50:56;14.30;99.90
13982;DHT22;7065;50.880;5.502;2023-05-07T05:53:21;14.40;99.90
13982;DHT22;7065;50.880;5.502;2023-05-07T05:55:47;14.40;99.90
13982;DHT22;7065;50.880;5.502;2023-05-07T05:58:13;14.60;99.90
13982;DHT22;7065;50.880;5.502;2023-05-07T06:00:41;14.60;99.90
13982;DHT22;7065;50.880;5.502;2023-05-07T06:03:07;14.80;99.90
13982;DHT22;7065;50.880;5.502;2023-05-07T06:05:33;14.90;99.90
13982;DHT22;7065;50.880;5.502;2023-05-07T06:07:58;14.90;99.90
13982;DHT22;7065;50.880;5.502;2023-05-07T06:10:25;15.00;99.90
13982;DHT22;7065;50.880;5.502;2023-05-07T06:12:51;15.10;99.90
13982;DHT22;7065;50.880;5.502;2023-05-07T06:15:17;15.10;99.90
13982;DHT22;7065;50.880;5.502;2023-05-07T06:17:42;15.10;99.90
13982;DHT22;7065;50.880;5.502;2023-05-07T06:20:08;15.10;99.90
13982;DHT22;7065;50.880;5.502;2023-05-07T06:22:34;15.20;99.90
13982;DHT22;7065;50.880;5.502;2023-05-07T06:25:00;15.30;99.90
13982;DHT22;7065;50.880;5.502;2023-05-07T06:27:25;15.30;99.90
13982;DHT22;7065;50.880;5.502;2023-05-07T06:29:53;15.40;99.90
13982;DHT22;7065;50.880;5.502;2023-05-07T06:32:19;15.50;99.90
13982;DHT22;7065;50.880;5.502;2023-05-07T06:34:44;15.60;99.90
13982;DHT22;7065;50.880;5.502;2023-05-07T06:37:10;15.70;99.90
13982;DHT22;7065;50.880;5.502;2023-05-07T06:39:36;15.80;99.90
13982;DHT22;7065;50.880;5.502;2023-05-07T06:42:01;15.90;99.90
13982;DHT22;7065;50.880;5.502;2023-05-07T06:44:28;16.00;99.90
13982;DHT22;7065;50.880;5.502;2023-05-07T06:46:53;16.10;99.90
13982;DHT22;7065;50.880;5.502;2023-05-07T06:49:19;16.10;99.90
13982;DHT22;7065;50.880;5.502;2023-05-07T06:51:46;16.20;99.90
13982;DHT22;7065;50.880;5.502;2023-05-07T06:54:11;16.30;99.90
13982;DHT22;7065;50.880;5.502;2023-05-07T06:56:37;16.40;99.90
13982;DHT22;7065;50.880;5.502;2023-05-07T06:59:03;16.50;99.90
13982;DHT22;7065;50.880;5.502;2023-05-07T07:01:29;16.50;99.90
13982;DHT22;7065;50.880;5.502;2023-05-07T07:03:55;16.60;99.90
13982;DHT22;7065;50.880;5.502;2023-05-07T07:06:21;16.60;99.90
13982;DHT22;7065;50.880;5.502;2023-05-07T07:08:46;16.70;99.90
13982;DHT22;7065;50.880;5.502;2023-05-07T07:11:12;16.80;99.90
13982;DHT22;7065;50.880;5.502;2023-05-07T07:13:38;16.90;99.90
13982;DHT22;7065;50.880;5.502;2023-05-07T07:16:04;16.90;99.90
13982;DHT22;7065;50.880;5.502;2023-05-07T07:18:29;16.90;99.90
13982;DHT22;7065;50.880;5.502;2023-05-07T07:20:55;17.00;99.90
13982;DHT22;7065;50.880;5.502;2023-05-07T07:23:21;17.00;99.90
13982;DHT22;7065;50.880;5.502;2023-05-07T07:25:47;17.20;99.90
13982;DHT22;7065;50.880;5.502;2023-05-07T07:28:12;17.20;99.90
13982;DHT22;7065;50.880;5.502;2023-05-07T07:30:39;17.30;99.90
13982;DHT22;7065;50.880;5.502;2023-05-07T07:33:05;17.30;99.90
13982;DHT22;7065;50.880;5.502;2023-05-07T07:35:33;17.40;99.90
13982;DHT22;7065;50.880;5.502;2023-05-07T07:37:59;17.50;99.90
13982;DHT22;7065;50.880;5.502;2023-05-07T07:40:25;17.50;99.90
13982;DHT22;7065;50.880;5.502;2023-05-07T07:42:52;17.60;99.90
13982;DHT22;7065;50.880;5.502;2023-05-07T07:45:18;17.70;99.90
13982;DHT22;7065;50.880;5.502;2023-05-07T07:47:43;17.80;99.90
13982;DHT22;7065;50.880;5.502;2023-05-07T07:50:09;17.80;99.90
13982;DHT22;7065;50.880;5.502;2023-05-07T07:52:35;17.80;99.90
13982;DHT22;7065;50.880;5.502;2023-05-07T07:55:01;17.80;99.90
13982;DHT22;7065;50.880;5.502;2023-05-07T07:57:27;17.90;99.90
13982;DHT22;7065;50.880;5.502;2023-05-07T07:59:53;18.00;99.90
13982;DHT22;7065;50.880;5.502;2023-05-07T08:02:18;18.10;99.90
13982;DHT22;7065;50.880;5.502;2023-05-07T08:04:44;18.20;99.90
13982;DHT22;7065;50.880;5.502;2023-05-07T08:07:11;18.40;99.90
13982;DHT22;7065;50.880;5.502;2023-05-07T08:09:40;18.50;99.90
13982;DHT22;7065;50.880;5.502;2023-05-07T08:12:07;18.60;99.90
13982;DHT22;7065;50.880;5.502;2023-05-07T08:14:33;18.70;99.90
13982;DHT22;7065;50.880;5.502;2023-05-07T08:16:59;18.90;99.90
13982;DHT22;7065;50.880;5.502;2023-05-07T08:19:25;19.00;99.90
13982;DHT22;7065;50.880;5.502;2023-05-07T08:21:51;19.20;99.90
13982;DHT22;7065;50.880;5.502;2023-05-07T08:24:17;19.20;99.90
13982;DHT22;7065;50.880;5.502;2023-05-07T08:26:44;19.40;99.90
13982;DHT22;7065;50.880;5.502;2023-05-07T08:29:10;19.60;99.90
13982;DHT22;7065;50.880;5.502;2023-05-07T08:31:36;19.60;99.90
13982;DHT22;7065;50.880;5.502;2023-05-07T08:34:03;19.60;99.90
13982;DHT22;7065;50.880;5.502;2023-05-07T08:36:29;19.70;99.90
13982;DHT22;7065;50.880;5.502;2023-05-07T08:38:55;19.70;99.90
13982;DHT22;7065;50.880;5.502;2023-05-07T08:41:20;19.90;99.90
13982;DHT22;7065;50.880;5.502;2023-05-07T08:43:50;20.00;99.90
13982;DHT22;7065;50.880;5.502;2023-05-07T08:46:22;19.90;99.90
13982;DHT22;7065;50.880;5.502;2023-05-07T08:48:49;19.90;99.90
13982;DHT22;7065;50.880;5.502;2023-05-07T08:51:18;19.90;99.90
13982;DHT22;7065;50.880;5.502;2023-05-07T08:53:46;20.00;99.90
13982;DHT22;7065;50.880;5.502;2023-05-07T08:56:14;20.10;99.90
13982;DHT22;7065;50.880;5.502;2023-05-07T08:58:43;20.20;99.90
13982;DHT22;7065;50.880;5.502;2023-05-07T09:01:18;20.30;99.90
13982;DHT22;7065;50.880;5.502;2023-05-07T09:03:45;20.30;99.90
13982;DHT22;7065;50.880;5.502;2023-05-07T09:06:12;20.40;99.90
13982;DHT22;7065;50.880;5.502;2023-05-07T09:08:37;20.50;99.90
13982;DHT22;7065;50.880;5.502;2023-05-07T09:11:03;20.20;99.90
13982;DHT22;7065;50.880;5.502;2023-05-07T09:13:29;20.20;99.90
13982;DHT22;7065;50.880;5.502;2023-05-07T09:15:56;20.20;99.90
13982;DHT22;7065;50.880;5.502;2023-05-07T09:18:24;20.20;99.90
13982;DHT22;7065;50.880;5.502;2023-05-07T09:20:50;20.30;99.90
13982;DHT22;7065;50.880;5.502;2023-05-07T09:23:16;20.30;99.90
13982;DHT22;7065;50.880;5.502;2023-05-07T09:25:42;20.40;99.90
13982;DHT22;7065;50.880;5.502;2023-05-07T09:28:08;20.40;99.90
13982;DHT22;7065;50.880;5.502;2023-05-07T09:30:36;20.30;99.90
13982;DHT22;7065;50.880;5.502;2023-05-07T09:33:03;20.40;99.90
13982;DHT22;7065;50.880;5.502;2023-05-07T09:35:30;20.30;99.90
13982;DHT22;7065;50.880;5.502;2023-05-07T09:37:59;20.30;99.90
13982;DHT22;7065;50.880;5.502;2023-05-07T09:40:27;20.40;99.90
13982;DHT22;7065;50.880;5.502;2023-05-07T09:42:53;20.40;99.90
13982;DHT22;7065;50.880;5.502;2023-05-07T09:45:27;20.50;99.90
13982;DHT22;7065;50.880;5.502;2023-05-07T09:47:57;20.50;99.90
13982;DHT22;7065;50.880;5.502;2023-05-07T09:50:27;20.60;99.90
13982;DHT22;7065;50.880;5.502;2023-05-07T09:52:57;20.50;99.90
13982;DHT22;7065;50.880;5.502;2023-05-07T09:55:23;20.40;99.90
13982;DHT22;7065;50.880;5.502;2023-05-07T09:57:53;20.30;99.90
13982;DHT22;7065;50.880;5.502;2023-05-07T10:00:20;20.30;99.90
13982;DHT22;7065;50.880;5.502;2023-05-07T10:02:51;20.30;99.90
13982;DHT22;7065;50.880;5.502;2023-05-07T10:05:21;20.30;99.90
13982;DHT22;7065;50.880;5.502;2023-05-07T10:07:48;20.30;99.90
13982;DHT22;7065;50.880;5.502;2023-05-07T10:10:14;20.30;99.90
13982;DHT22;7065;50.880;5.502;2023-05-07T10:12:41;20.20;99.90
13982;DHT22;7065;50.880;5.502;2023-05-07T10:15:11;20.10;99.90
13982;DHT22;7065;50.880;5.502;2023-05-07T10:17:38;20.20;99.90
13982;DHT22;7065;50.880;5.502;2023-05-07T10:20:08;20.20;99.90
13982;DHT22;7065;50.880;5.502;2023-05-07T10:22:48;20.10;99.90
13982;DHT22;7065;50.880;5.502;2023-05-07T10:25:31;20.10;99.90
13982;DHT22;7065;50.880;5.502;2023-05-07T10:28:01;20.20;99.90
13982;DHT22;7065;50.880;5.502;2023-05-07T10:33:13;20.20;99.90
13982;DHT22;7065;50.880;5.502;2023-05-07T10:35:43;20.00;99.90
13982;DHT22;7065;50.880;5.502;2023-05-07T10:38:09;20.00;99.90
13982;DHT22;7065;50.880;5.502;2023-05-07T10:40:36;19.80;99.90
13982;DHT22;7065;50.880;5.502;2023-05-07T10:43:04;19.80;99.90
13982;DHT22;7065;50.880;5.502;2023-05-07T10:45:33;19.70;99.90
13982;DHT22;7065;50.880;5.502;2023-05-07T10:48:17;19.60;99.90
13982;DHT22;7065;50.880;5.502;2023-05-07T10:50:44;19.60;99.90
13982;DHT22;7065;50.880;5.502;2023-05-07T10:55:49;19.50;99.90
13982;DHT22;7065;50.880;5.502;2023-05-07T11:00:48;19.40;99.90
13982;DHT22;7065;50.880;5.502;2023-05-07T11:03:14;19.30;99.90
13982;DHT22;7065;50.880;5.502;2023-05-07T11:05:41;19.40;99.90
13982;DHT22;7065;50.880;5.502;2023-05-07T11:08:09;19.40;99.90
13982;DHT22;7065;50.880;5.502;2023-05-07T11:10:54;19.40;99.90
13982;DHT22;7065;50.880;5.502;2023-05-07T11:16:18;19.30;99.90
13982;DHT22;7065;50.880;5.502;2023-05-07T11:18:52;19.30;99.90
13982;DHT22;7065;50.880;5.502;2023-05-07T11:21:38;19.30;99.90
13982;DHT22;7065;50.880;5.502;2023-05-07T11:24:06;19.20;99.90
13982;DHT22;7065;50.880;5.502;2023-05-07T11:26:49;19.30;99.90
13982;DHT22;7065;50.880;5.502;2023-05-07T11:29:17;19.20;99.90
13982;DHT22;7065;50.880;5.502;2023-05-07T11:31:48;19.20;99.90
13982;DHT22;7065;50.880;5.502;2023-05-07T11:34:15;19.10;99.90
13982;DHT22;7065;50.880;5.502;2023-05-07T11:36:47;19.20;99.90
13982;DHT22;7065;50.880;5.502;2023-05-07T11:39:33;19.10;99.90
13982;DHT22;7065;50.880;5.502;2023-05-07T11:42:02;19.10;99.90
13982;DHT22;7065;50.880;5.502;2023-05-07T11:44:44;19.10;99.90
13982;DHT22;7065;50.880;5.502;2023-05-07T11:47:11;19.20;99.90
13982;DHT22;7065;50.880;5.502;2023-05-07T11:49:42;19.20;99.90
13982;DHT22;7065;50.880;5.502;2023-05-07T11:52:08;19.30;99.90
13982;DHT22;7065;50.880;5.502;2023-05-07T11:54:37;19.30;99.90
13982;DHT22;7065;50.880;5.502;2023-05-07T11:57:02;19.20;99.90
13982;DHT22;7065;50.880;5.502;2023-05-07T11:59:28;19.20;99.90
13982;DHT22;7065;50.880;5.502;2023-05-07T12:01:57;19.20;99.90
13982;DHT22;7065;50.880;5.502;2023-05-07T12:04:24;19.20;99.90
13982;DHT22;7065;50.880;5.502;2023-05-07T12:06:54;19.10;99.90
13982;DHT22;7065;50.880;5.502;2023-05-07T12:09:21;19.00;99.90
13982;DHT22;7065;50.880;5.502;2023-05-07T12:11:47;19.00;99.90
13982;DHT22;7065;50.880;5.502;2023-05-07T12:14:13;18.90;99.90
13982;DHT22;7065;50.880;5.502;2023-05-07T12:16:41;19.00;99.90
13982;DHT22;7065;50.880;5.502;2023-05-07T12:19:08;18.90;99.90
13982;DHT22;7065;50.880;5.502;2023-05-07T12:21:38;18.90;99.90
13982;DHT22;7065;50.880;5.502;2023-05-07T12:24:05;18.80;99.90
13982;DHT22;7065;50.880;5.502;2023-05-07T12:26:30;18.80;99.90
13982;DHT22;7065;50.880;5.502;2023-05-07T12:28:57;18.70;99.90
13982;DHT22;7065;50.880;5.502;2023-05-07T12:31:25;18.70;99.90
13982;DHT22;7065;50.880;5.502;2023-05-07T12:33:51;18.70;99.90
13982;DHT22;7065;50.880;5.502;2023-05-07T12:36:17;18.70;99.90
13982;DHT22;7065;50.880;5.502;2023-05-07T12:38:43;18.80;99.90
13982;DHT22;7065;50.880;5.502;2023-05-07T12:41:10;18.80;99.90
13982;DHT22;7065;50.880;5.502;2023-05-07T12:43:37;18.90;99.90
13982;DHT22;7065;50.880;5.502;2023-05-07T12:46:05;18.90;99.90
13982;DHT22;7065;50.880;5.502;2023-05-07T12:48:31;18.90;99.90
13982;DHT22;7065;50.880;5.502;2023-05-07T12:51:00;19.00;99.90
13982;DHT22;7065;50.880;5.502;2023-05-07T12:53:27;19.10;99.90
13982;DHT22;7065;50.880;5.502;2023-05-07T12:55:54;19.20;99.90
13982;DHT22;7065;50.880;5.502;2023-05-07T12:58:33;19.20;99.90
13982;DHT22;7065;50.880;5.502;2023-05-07T13:01:00;19.30;99.90
13982;DHT22;7065;50.880;5.502;2023-05-07T13:03:27;19.30;99.90
13982;DHT22;7065;50.880;5.502;2023-05-07T13:05:58;19.30;99.90
13982;DHT22;7065;50.880;5.502;2023-05-07T13:08:33;19.40;99.90
13982;DHT22;7065;50.880;5.502;2023-05-07T13:11:01;19.40;99.90
13982;DHT22;7065;50.880;5.502;2023-05-07T13:13:34;19.40;99.90
13982;DHT22;7065;50.880;5.502;2023-05-07T13:16:00;19.60;99.90
13982;DHT22;7065;50.880;5.502;2023-05-07T13:18:28;19.80;99.90
13982;DHT22;7065;50.880;5.502;2023-05-07T13:20:54;19.80;99.90
13982;DHT22;7065;50.880;5.502;2023-05-07T13:23:20;19.90;99.90
13982;DHT22;7065;50.880;5.502;2023-05-07T13:25:46;19.90;99.90
13982;DHT22;7065;50.880;5.502;2023-05-07T13:28:11;19.90;99.90
13982;DHT22;7065;50.880;5.502;2023-05-07T13:30:39;20.20;99.90
13982;DHT22;7065;50.880;5.502;2023-05-07T13:33:06;20.40;99.90
13982;DHT22;7065;50.880;5.502;2023-05-07T13:35:32;20.50;99.90
13982;DHT22;7065;50.880;5.502;2023-05-07T13:37:58;20.40;99.90
13982;DHT22;7065;50.880;5.502;2023-05-07T13:40:24;20.50;99.90
13982;DHT22;7065;50.880;5.502;2023-05-07T13:42:50;20.40;99.90
13982;DHT22;7065;50.880;5.502;2023-05-07T13:45:17;20.60;99.90
13982;DHT22;7065;50.880;5.502;2023-05-07T13:47:43;20.60;99.90
13982;DHT22;7065;50.880;5.502;2023-05-07T13:50:10;20.60;99.90
13982;DHT22;7065;50.880;5.502;2023-05-07T13:52:41;20.60;99.90
13982;DHT22;7065;50.880;5.502;2023-05-07T13:55:09;20.60;99.90
13982;DHT22;7065;50.880;5.502;2023-05-07T13:57:35;20.70;99.90
13982;DHT22;7065;50.880;5.502;2023-05-07T14:00:01;20.70;99.90
13982;DHT22;7065;50.880;5.502;2023-05-07T14:02:26;20.70;99.90
13982;DHT22;7065;50.880;5.502;2023-05-07T14:04:52;20.70;99.90
13982;DHT22;7065;50.880;5.502;2023-05-07T14:07:18;20.80;99.90
13982;DHT22;7065;50.880;5.502;2023-05-07T14:09:43;20.70;99.90
13982;DHT22;7065;50.880;5.502;2023-05-07T14:12:11;20.70;99.90
13982;DHT22;7065;50.880;5.502;2023-05-07T14:14:36;20.50;99.90
13982;DHT22;7065;50.880;5.502;2023-05-07T14:17:02;20.30;99.90
13982;DHT22;7065;50.880;5.502;2023-05-07T14:19:28;20.30;99.90
13982;DHT22;7065;50.880;5.502;2023-05-07T14:21:53;20.30;99.90
13982;DHT22;7065;50.880;5.502;2023-05-07T14:24:20;20.30;99.90
13982;DHT22;7065;50.880;5.502;2023-05-07T14:26:45;20.30;99.90
13982;DHT22;7065;50.880;5.502;2023-05-07T14:29:11;20.20;99.90
13982;DHT22;7065;50.880;5.502;2023-05-07T14:31:37;20.20;99.90
13982;DHT22;7065;50.880;5.502;2023-05-07T14:34:02;20.20;99.90
13982;DHT22;7065;50.880;5.502;2023-05-07T14:36:28;20.20;99.90
13982;DHT22;7065;50.880;5.502;2023-05-07T14:38:55;20.30;99.90
13982;DHT22;7065;50.880;5.502;2023-05-07T14:41:22;20.40;99.90
13982;DHT22;7065;50.880;5.502;2023-05-07T14:43:48;20.30;99.90
13982;DHT22;7065;50.880;5.502;2023-05-07T14:46:18;20.30;99.90
13982;DHT22;7065;50.880;5.502;2023-05-07T14:48:47;20.30;99.90
13982;DHT22;7065;50.880;5.502;2023-05-07T14:51:13;20.30;99.90
13982;DHT22;7065;50.880;5.502;2023-05-07T14:53:41;20.30;99.90
13982;DHT22;7065;50.880;5.502;2023-05-07T14:56:07;20.30;99.90
13982;DHT22;7065;50.880;5.502;2023-05-07T14:58:33;20.30;99.90
13982;DHT22;7065;50.880;5.502;2023-05-07T15:00:59;20.40;99.90
13982;DHT22;7065;50.880;5.502;2023-05-07T15:03:25;20.50;99.90
13982;DHT22;7065;50.880;5.502;2023-05-07T15:05:51;20.60;99.90
13982;DHT22;7065;50.880;5.502;2023-05-07T15:08:17;20.70;99.90
13982;DHT22;7065;50.880;5.502;2023-05-07T15:10:44;20.60;99.90
13982;DHT22;7065;50.880;5.502;2023-05-07T15:13:11;20.50;99.90
13982;DHT22;7065;50.880;5.502;2023-05-07T15:15:37;20.60;99.90
13982;DHT22;7065;50.880;5.502;2023-05-07T15:18:03;20.60;99.90
13982;DHT22;7065;50.880;5.502;2023-05-07T15:20:29;20.50;99.90
13982;DHT22;7065;50.880;5.502;2023-05-07T15:22:55;20.50;99.90
13982;DHT22;7065;50.880;5.502;2023-05-07T15:25:23;20.40;99.90
13982;DHT22;7065;50.880;5.502;2023-05-07T15:27:49;20.40;99.90
13982;DHT22;7065;50.880;5.502;2023-05-07T15:30:15;20.60;99.90
13982;DHT22;7065;50.880;5.502;2023-05-07T15:32:41;20.80;99.90
13982;DHT22;7065;50.880;5.502;2023-05-07T15:35:08;20.80;99.90
13982;DHT22;7065;50.880;5.502;2023-05-07T15:37:34;20.80;99.90
13982;DHT22;7065;50.880;5.502;2023-05-07T15:40:00;20.80;99.90
13982;DHT22;7065;50.880;5.502;2023-05-07T15:42:28;20.90;99.90
13982;DHT22;7065;50.880;5.502;2023-05-07T15:44:53;20.80;99.90
13982;DHT22;7065;50.880;5.502;2023-05-07T15:47:19;20.90;99.90
13982;DHT22;7065;50.880;5.502;2023-05-07T15:49:45;21.10;99.90
13982;DHT22;7065;50.880;5.502;2023-05-07T15:52:11;21.30;99.90